Time;durP1;ratioP1;P1;durP2;ratioP2;P2;SDS_P1;SDS_P2;PMS_P1;PMS_P2;Temp;Humidity;BMP_temperature;BMP_pressure;BME280_temperature;BME280_humidity;BME280_pressure;Samples;Min_cycle;Max_cycle;Signal;HPM_P1;HPM_P2
2021/06/16 00:00:37;;;;;;;1.57;0.90;;;22.70;98.50;;;;;;5081801;28;20469;-48
2021/06/16 00:03:09;;;;;;;1.63;1.10;;;22.60;97.70;;;;;;5083270;28;20545;-49
2021/06/16 00:05:43;;;;;;;1.70;1.20;;;22.50;99.90;;;;;;5082511;28;20469;-50
2021/06/16 00:08:14;;;;;;;1.93;1.20;;;22.60;99.90;;;;;;5082630;28;20458;-49
2021/06/16 00:10:45;;;;;;;1.83;1.73;;;22.70;99.40;;;;;;5080996;28;20451;-50
2021/06/16 00:13:16;;;;;;;2.53;1.40;;;22.80;99.90;;;;;;5081771;28;20456;-47
2021/06/16 00:15:50;;;;;;;1.37;1.23;;;22.80;98.60;;;;;;5081885;28;20475;-47
2021/06/16 00:18:21;;;;;;;1.93;1.17;;;23.00;99.30;;;;;;5082736;28;20505;-48
2021/06/16 00:20:52;;;;;;;1.20;1.10;;;23.00;98.40;;;;;;5080405;28;20941;-48
2021/06/16 00:23:23;;;;;;;1.80;1.00;;;23.10;99.50;;;;;;5082228;28;20483;-50
2021/06/16 00:25:53;;;;;;;1.07;1.00;;;23.00;99.90;;;;;;5080660;28;20493;-47
2021/06/16 00:28:24;;;;;;;1.63;1.20;;;22.90;99.90;;;;;;5070953;28;20483;-51
2021/06/16 00:30:57;;;;;;;1.03;0.93;;;22.80;99.90;;;;;;5082151;28;20429;-47
2021/06/16 00:33:28;;;;;;;1.37;0.93;;;22.70;99.90;;;;;;5083290;28;20445;-48
2021/06/16 00:36:00;;;;;;;1.30;1.00;;;22.70;96.70;;;;;;5063154;28;20469;-51
2021/06/16 00:38:31;;;;;;;0.80;0.80;;;22.30;98.20;;;;;;5074914;28;20452;-48
2021/06/16 00:41:02;;;;;;;0.80;0.80;;;22.20;99.90;;;;;;5078572;28;20672;-47
2021/06/16 00:43:33;;;;;;;1.70;0.80;;;22.20;98.80;;;;;;5079677;28;20487;-50
2021/06/16 00:46:05;;;;;;;1.00;1.00;;;22.40;98.00;;;;;;5076940;28;20444;-47
2021/06/16 00:48:37;;;;;;;1.00;0.90;;;22.60;98.80;;;;;;5078230;28;20479;-48
2021/06/16 00:51:08;;;;;;;0.97;0.83;;;23.00;97.20;;;;;;5081122;28;20473;-48
2021/06/16 00:53:39;;;;;;;1.70;0.80;;;22.90;96.30;;;;;;5079570;28;20938;-49
2021/06/16 00:56:10;;;;;;;3.40;1.00;;;22.70;94.90;;;;;;5081404;28;20928;-49
2021/06/16 00:58:41;;;;;;;1.43;1.00;;;22.60;95.00;;;;;;5081612;28;20456;-50
2021/06/16 01:01:18;;;;;;;1.20;0.90;;;22.50;95.30;;;;;;5081577;28;20515;-51
2021/06/16 01:03:58;;;;;;;1.30;1.00;;;22.20;95.10;;;;;;5082491;28;20875;-48
2021/06/16 01:06:35;;;;;;;3.00;0.90;;;21.90;96.00;;;;;;5075874;28;20451;-47
2021/06/16 01:09:13;;;;;;;1.30;1.10;;;21.70;94.30;;;;;;5080722;28;20497;-51
2021/06/16 01:11:58;;;;;;;2.33;1.00;;;21.60;96.00;;;;;;5083050;28;20457;-47
2021/06/16 01:14:37;;;;;;;1.77;1.03;;;21.70;97.70;;;;;;5086402;28;20507;-48
2021/06/16 01:17:12;;;;;;;1.97;0.90;;;21.70;95.80;;;;;;5086148;28;20454;-51
2021/06/16 01:20:04;;;;;;;1.23;0.90;;;21.70;95.60;;;;;;5085940;28;20523;-47
2021/06/16 01:22:43;;;;;;;1.70;1.10;;;21.80;95.20;;;;;;5079703;28;20426;-46
2021/06/16 01:25:22;;;;;;;2.33;0.97;;;21.70;94.30;;;;;;5083806;28;20443;-49
2021/06/16 01:27:55;;;;;;;0.73;0.73;;;21.80;95.90;;;;;;5086430;28;20479;-49
2021/06/16 01:30:30;;;;;;;1.77;0.97;;;21.50;98.40;;;;;;5086343;28;20442;-47
2021/06/16 01:33:02;;;;;;;1.53;0.97;;;21.50;96.90;;;;;;5085920;28;20490;-48
2021/06/16 01:35:34;;;;;;;1.63;1.00;;;21.50;95.20;;;;;;5073105;28;20457;-49
2021/06/16 01:38:06;;;;;;;0.93;0.80;;;21.50;95.00;;;;;;5086321;28;20453;-49
2021/06/16 01:40:40;;;;;;;1.50;1.00;;;21.50;94.40;;;;;;5084781;28;20959;-46
2021/06/16 01:43:14;;;;;;;1.47;1.20;;;21.70;95.30;;;;;;5078340;28;20435;-46
2021/06/16 01:45:48;;;;;;;1.33;1.07;;;21.60;95.40;;;;;;5078096;28;20471;-49
2021/06/16 01:48:23;;;;;;;1.83;1.30;;;21.80;95.60;;;;;;5085979;28;20448;-49
2021/06/16 01:50:55;;;;;;;1.13;0.87;;;21.80;94.80;;;;;;5085922;28;20479;-47
2021/06/16 01:53:26;;;;;;;2.70;1.10;;;21.60;94.80;;;;;;5084709;28;20442;-49
2021/06/16 01:56:01;;;;;;;0.70;0.70;;;21.70;95.20;;;;;;5083584;28;20794;-49
2021/06/16 01:58:35;;;;;;;1.70;1.30;;;21.80;94.50;;;;;;5086324;28;20462;-50
2021/06/16 02:01:06;;;;;;;3.00;1.50;;;21.70;95.70;;;;;;5084914;28;20414;-52
2021/06/16 02:03:38;;;;;;;2.80;1.10;;;21.60;95.60;;;;;;5084292;28;20460;-50
2021/06/16 02:06:10;;;;;;;1.10;1.00;;;21.60;94.90;;;;;;5084699;28;20775;-48
2021/06/16 02:08:42;;;;;;;1.60;1.17;;;21.40;94.40;;;;;;5085371;28;20459;-47
2021/06/16 02:11:14;;;;;;;0.80;0.80;;;21.30;94.20;;;;;;5084010;28;20539;-51
2021/06/16 02:13:51;;;;;;;1.33;1.20;;;21.30;95.50;;;;;;5084997;28;20471;-49
2021/06/16 02:16:28;;;;;;;2.27;0.93;;;21.20;95.10;;;;;;5085031;28;20465;-49
2021/06/16 02:19:04;;;;;;;1.20;0.80;;;21.10;92.50;;;;;;5085336;28;20831;-53
2021/06/16 02:21:36;;;;;;;1.00;0.90;;;21.10;92.20;;;;;;5081867;28;20440;-50
2021/06/16 02:24:08;;;;;;;2.00;0.90;;;21.10;93.60;;;;;;5082351;28;20448;-48
2021/06/16 02:26:39;;;;;;;0.87;0.80;;;20.90;92.90;;;;;;5085302;28;20482;-46
2021/06/16 02:29:12;;;;;;;2.40;0.80;;;20.80;93.40;;;;;;5085047;28;20441;-50
2021/06/16 02:31:44;;;;;;;1.40;1.00;;;20.80;92.60;;;;;;5085638;28;20430;-54
2021/06/16 02:34:15;;;;;;;1.10;1.00;;;20.80;93.00;;;;;;5068084;28;20430;-48
2021/06/16 02:36:48;;;;;;;1.03;0.93;;;20.80;92.10;;;;;;5085258;28;20934;-49
2021/06/16 02:39:24;;;;;;;1.67;0.97;;;20.80;93.60;;;;;;5083908;28;20538;-49
2021/06/16 02:41:55;;;;;;;1.30;1.03;;;20.70;95.00;;;;;;5084945;28;20432;-49
2021/06/16 02:44:29;;;;;;;1.30;1.20;;;20.70;95.20;;;;;;5075943;28;20452;-49
2021/06/16 02:47:02;;;;;;;1.43;1.20;;;20.50;95.70;;;;;;5084656;28;20486;-46
2021/06/16 02:49:40;;;;;;;2.77;1.33;;;20.40;95.50;;;;;;5081659;28;20516;-49
2021/06/16 02:52:13;;;;;;;1.47;1.20;;;20.10;96.60;;;;;;5084151;28;20456;-46
2021/06/16 02:54:46;;;;;;;1.83;1.07;;;19.90;95.20;;;;;;5083640;28;20430;-47
2021/06/16 02:57:22;;;;;;;1.53;1.07;;;19.80;95.90;;;;;;5084846;28;20451;-47
2021/06/16 02:59:56;;;;;;;0.93;0.90;;;19.60;96.30;;;;;;5084946;28;20435;-48
2021/06/16 03:02:28;;;;;;;1.03;0.93;;;19.50;96.60;;;;;;5083755;28;20974;-48
2021/06/16 03:05:01;;;;;;;1.90;1.20;;;19.40;98.40;;;;;;5084308;28;20448;-49
2021/06/16 03:07:36;;;;;;;1.23;1.00;;;19.30;97.30;;;;;;5084100;28;20468;-48
2021/06/16 03:10:10;;;;;;;1.63;1.00;;;19.30;96.70;;;;;;5078825;28;20474;-47
2021/06/16 03:12:42;;;;;;;1.43;1.07;;;19.20;96.90;;;;;;5084147;28;20769;-45
2021/06/16 03:15:17;;;;;;;1.57;1.17;;;19.00;97.10;;;;;;5083611;28;20490;-46
2021/06/16 03:17:50;;;;;;;1.67;1.07;;;19.00;96.30;;;;;;5082052;28;20593;-45
2021/06/16 03:20:23;;;;;;;1.60;1.10;;;18.90;97.30;;;;;;5083477;28;20455;-49
2021/06/16 03:22:57;;;;;;;1.93;1.13;;;18.90;96.70;;;;;;5083022;28;20472;-49
2021/06/16 03:25:29;;;;;;;1.93;1.10;;;18.70;96.40;;;;;;5082279;28;20952;-47
2021/06/16 03:28:03;;;;;;;1.77;0.97;;;18.60;95.70;;;;;;5083775;28;20447;-45
2021/06/16 03:30:36;;;;;;;1.63;1.17;;;18.50;97.40;;;;;;5082516;28;20435;-48
2021/06/16 03:33:08;;;;;;;1.30;1.20;;;18.30;97.70;;;;;;5080907;28;20443;-49
2021/06/16 03:35:39;;;;;;;1.40;1.30;;;18.30;97.00;;;;;;5082368;28;20471;-46
2021/06/16 03:38:11;;;;;;;2.50;1.80;;;18.20;97.40;;;;;;5084022;28;20466;-50
2021/06/16 03:40:42;;;;;;;2.60;1.17;;;18.10;98.70;;;;;;5082285;28;20452;-50
2021/06/16 03:43:14;;;;;;;1.37;1.27;;;18.00;98.70;;;;;;5068116;28;20458;-47
2021/06/16 03:45:47;;;;;;;2.37;1.30;;;17.90;99.90;;;;;;5083210;28;20444;-48
2021/06/16 03:48:23;;;;;;;1.70;1.40;;;17.80;99.90;;;;;;5081436;28;20553;-46
2021/06/16 03:50:56;;;;;;;2.00;1.30;;;17.70;99.90;;;;;;5082901;28;20451;-46
2021/06/16 03:53:28;;;;;;;3.07;1.20;;;17.60;99.90;;;;;;5082051;28;20467;-46
2021/06/16 03:56:01;;;;;;;1.70;1.13;;;17.50;99.10;;;;;;5077847;28;20507;-48
2021/06/16 03:58:32;;;;;;;1.20;1.10;;;17.40;99.00;;;;;;5083472;28;20487;-48
2021/06/16 04:01:05;;;;;;;1.47;1.00;;;17.20;99.90;;;;;;5083145;28;20468;-49
2021/06/16 04:03:36;;;;;;;2.00;1.20;;;17.10;99.90;;;;;;5083020;28;20514;-46
2021/06/16 04:06:09;;;;;;;2.03;1.00;;;17.10;99.90;;;;;;5083113;28;20533;-49
2021/06/16 04:08:40;;;;;;;1.77;1.40;;;16.90;99.90;;;;;;5083310;28;20452;-46
2021/06/16 04:11:12;;;;;;;1.90;1.10;;;16.90;99.90;;;;;;5081995;28;20448;-50
2021/06/16 04:13:43;;;;;;;2.17;1.20;;;16.90;99.90;;;;;;5082718;28;20515;-48
2021/06/16 04:16:17;;;;;;;1.73;1.30;;;16.80;99.90;;;;;;5082823;28;20574;-49
2021/06/16 04:18:48;;;;;;;1.53;1.23;;;16.70;99.90;;;;;;5083777;28;20443;-52
2021/06/16 04:21:19;;;;;;;3.67;1.43;;;16.70;99.90;;;;;;5082536;28;20850;-49
2021/06/16 04:23:51;;;;;;;1.70;1.57;;;16.60;99.90;;;;;;5079275;28;20423;-51
2021/06/16 04:26:23;;;;;;;2.27;1.40;;;16.50;99.90;;;;;;5081313;28;20582;-47
2021/06/16 04:28:54;;;;;;;3.40;1.80;;;16.40;99.90;;;;;;5081844;28;20534;-47
2021/06/16 04:31:27;;;;;;;1.43;1.27;;;16.30;99.90;;;;;;5082517;28;21063;-48
2021/06/16 04:33:59;;;;;;;2.53;1.50;;;16.20;99.90;;;;;;5081123;28;20878;-48
2021/06/16 04:36:30;;;;;;;1.70;1.60;;;16.10;99.90;;;;;;5079494;28;20511;-49
2021/06/16 04:39:01;;;;;;;2.40;1.63;;;16.10;99.90;;;;;;5081408;28;20451;-49
2021/06/16 04:41:32;;;;;;;5.07;1.60;;;16.00;99.90;;;;;;5082239;28;20480;-50
2021/06/16 04:44:04;;;;;;;2.60;1.73;;;15.90;99.90;;;;;;5081533;28;20487;-51
2021/06/16 04:46:38;;;;;;;2.70;2.00;;;15.80;99.90;;;;;;5081341;28;20444;-48
2021/06/16 04:49:09;;;;;;;2.13;2.00;;;15.80;99.90;;;;;;5082404;28;20447;-47
2021/06/16 04:51:40;;;;;;;2.63;1.87;;;15.70;99.90;;;;;;5082043;28;20452;-48
2021/06/16 04:54:11;;;;;;;2.30;1.90;;;15.60;99.90;;;;;;5080247;28;20447;-51
2021/06/16 04:56:43;;;;;;;3.37;2.20;;;15.60;99.90;;;;;;5082764;28;20502;-48
2021/06/16 04:59:14;;;;;;;2.80;1.90;;;15.50;99.90;;;;;;5082153;28;20479;-48
2021/06/16 05:01:47;;;;;;;2.80;2.60;;;15.40;99.90;;;;;;5082996;28;20451;-49
2021/06/16 05:04:18;;;;;;;3.50;2.10;;;15.40;99.90;;;;;;5082417;28;20546;-46
2021/06/16 05:06:49;;;;;;;2.77;1.90;;;15.30;99.90;;;;;;5082814;28;20506;-47
2021/06/16 05:09:20;;;;;;;2.03;1.90;;;15.30;99.90;;;;;;5081223;28;20486;-49
2021/06/16 05:11:51;;;;;;;3.00;2.37;;;15.20;99.90;;;;;;5082993;28;20521;-49
2021/06/16 05:14:22;;;;;;;2.40;2.10;;;15.20;99.90;;;;;;5081817;28;20574;-51
2021/06/16 05:16:55;;;;;;;2.57;2.00;;;15.10;99.90;;;;;;5068817;28;20491;-48
2021/06/16 05:19:26;;;;;;;2.80;2.10;;;15.10;99.90;;;;;;5082788;28;20436;-49
2021/06/16 05:22:05;;;;;;;2.20;2.00;;;15.00;99.90;;;;;;5082514;28;20443;-48
2021/06/16 05:24:36;;;;;;;3.40;2.07;;;15.00;99.90;;;;;;5081138;28;20531;-47
2021/06/16 05:27:08;;;;;;;1.70;1.60;;;15.00;99.90;;;;;;5082403;28;20473;-48
2021/06/16 05:29:39;;;;;;;2.10;1.90;;;14.90;99.90;;;;;;5082514;28;20475;-47
2021/06/16 05:32:12;;;;;;;3.00;1.90;;;14.80;99.90;;;;;;5082566;28;20818;-51
2021/06/16 05:34:43;;;;;;;2.83;1.70;;;14.80;99.90;;;;;;5081661;28;20450;-46
2021/06/16 05:37:14;;;;;;;2.60;1.90;;;14.80;99.90;;;;;;5081494;28;20479;-49
2021/06/16 05:39:45;;;;;;;4.13;2.30;;;14.70;99.90;;;;;;5080443;28;20460;-52
2021/06/16 05:42:16;;;;;;;2.30;2.20;;;14.70;99.90;;;;;;5082292;28;20797;-48
2021/06/16 05:44:48;;;;;;;2.80;2.60;;;14.60;99.90;;;;;;5081802;28;20455;-48
2021/06/16 05:47:21;;;;;;;3.23;1.83;;;14.60;99.90;;;;;;5081619;28;20487;-50
2021/06/16 05:49:52;;;;;;;3.20;2.30;;;14.50;99.90;;;;;;5082645;28;20448;-47
2021/06/16 05:52:23;;;;;;;2.00;1.80;;;14.50;99.90;;;;;;5082604;28;20490;-47
2021/06/16 05:54:54;;;;;;;2.07;1.90;;;14.40;99.90;;;;;;5080482;28;20479;-47
2021/06/16 05:57:25;;;;;;;2.43;2.00;;;14.40;99.90;;;;;;5067294;28;20543;-47
2021/06/16 05:59:56;;;;;;;3.73;2.20;;;14.40;99.90;;;;;;5085284;28;20462;-46
2021/06/16 06:02:28;;;;;;;2.60;2.40;;;14.30;99.90;;;;;;5086181;28;20432;-49
2021/06/16 06:04:59;;;;;;;2.63;2.37;;;14.30;99.90;;;;;;5085358;28;20508;-47
2021/06/16 06:07:30;;;;;;;2.40;2.20;;;14.30;99.90;;;;;;5069961;28;20447;-48
2021/06/16 06:10:01;;;;;;;3.60;2.90;;;14.20;99.90;;;;;;5084276;28;20443;-51
2021/06/16 06:12:32;;;;;;;2.67;2.47;;;14.10;99.90;;;;;;5085687;28;20456;-50
2021/06/16 06:15:03;;;;;;;3.33;2.70;;;14.00;99.90;;;;;;5084904;28;20443;-52
2021/06/16 06:17:36;;;;;;;2.80;2.43;;;13.80;99.90;;;;;;5085964;28;20483;-47
2021/06/16 06:20:08;;;;;;;2.80;2.60;;;13.80;99.90;;;;;;5085068;28;20479;-49
2021/06/16 06:22:40;;;;;;;2.83;2.63;;;13.80;99.90;;;;;;5084722;28;20492;-48
2021/06/16 06:25:11;;;;;;;2.87;2.67;;;13.80;99.90;;;;;;5083538;28;20991;-50
2021/06/16 06:27:43;;;;;;;3.40;3.10;;;13.80;99.90;;;;;;5085007;28;20470;-50
2021/06/16 06:30:14;;;;;;;4.83;2.67;;;13.70;99.90;;;;;;5085374;28;20446;-48
2021/06/16 06:32:47;;;;;;;4.37;2.97;;;13.70;99.90;;;;;;5085669;28;20940;-50
2021/06/16 06:35:18;;;;;;;3.13;2.80;;;13.70;99.90;;;;;;5084484;28;20582;-53
2021/06/16 06:37:49;;;;;;;6.67;3.00;;;13.60;99.90;;;;;;5084879;28;20498;-50
2021/06/16 06:40:20;;;;;;;4.57;3.07;;;13.60;99.90;;;;;;5084123;28;20482;-48
2021/06/16 06:42:51;;;;;;;3.80;3.00;;;13.60;99.90;;;;;;5084151;28;20486;-49
2021/06/16 06:45:22;;;;;;;3.27;2.93;;;13.50;99.90;;;;;;5084213;28;20563;-49
2021/06/16 06:47:54;;;;;;;3.83;2.70;;;13.50;99.90;;;;;;5085650;28;20503;-47
2021/06/16 06:50:26;;;;;;;3.70;3.40;;;13.40;99.90;;;;;;5083998;28;21195;-50
2021/06/16 06:52:57;;;;;;;5.30;3.60;;;13.30;99.90;;;;;;5084975;28;20459;-47
2021/06/16 06:55:28;;;;;;;4.30;3.90;;;13.40;99.90;;;;;;5083640;28;20455;-46
2021/06/16 06:57:59;;;;;;;5.23;3.23;;;13.40;99.90;;;;;;5084728;28;20487;-51
2021/06/16 07:00:31;;;;;;;4.10;3.30;;;13.30;99.90;;;;;;5084327;28;20452;-48
2021/06/16 07:03:03;;;;;;;6.17;3.50;;;13.20;99.90;;;;;;5085522;28;20482;-49
2021/06/16 07:05:34;;;;;;;3.03;2.83;;;13.20;99.90;;;;;;5084297;28;20816;-48
2021/06/16 07:08:06;;;;;;;3.93;3.20;;;13.20;99.90;;;;;;5084553;28;20558;-48
2021/06/16 07:10:37;;;;;;;3.77;3.03;;;13.10;99.90;;;;;;5082360;28;20575;-46
2021/06/16 07:13:08;;;;;;;4.10;3.10;;;13.00;99.90;;;;;;5084438;28;20566;-46
2021/06/16 07:15:39;;;;;;;3.70;3.40;;;13.00;99.90;;;;;;5083904;28;20473;-48
2021/06/16 07:18:12;;;;;;;3.27;3.07;;;13.00;99.90;;;;;;5084572;28;20564;-47
2021/06/16 07:20:43;;;;;;;3.30;3.00;;;12.90;99.90;;;;;;5083455;28;20474;-50
2021/06/16 07:23:14;;;;;;;5.00;3.50;;;12.80;99.90;;;;;;5082154;28;20568;-48
2021/06/16 07:25:45;;;;;;;4.40;3.83;;;12.80;99.90;;;;;;5082350;28;20467;-52
2021/06/16 07:28:15;;;;;;;5.77;3.90;;;12.80;99.90;;;;;;5080982;28;20443;-48
2021/06/16 07:30:46;;;;;;;3.77;3.47;;;12.70;99.90;;;;;;5084191;28;20463;-46
2021/06/16 07:33:19;;;;;;;3.53;3.20;;;12.70;99.90;;;;;;5084520;28;20435;-47
2021/06/16 07:35:53;;;;;;;7.03;3.47;;;12.60;99.90;;;;;;5083795;28;20453;-47
2021/06/16 07:38:24;;;;;;;4.00;3.60;;;12.60;99.90;;;;;;5083456;28;20510;-47
2021/06/16 07:40:55;;;;;;;5.63;3.40;;;12.60;99.90;;;;;;5082816;28;20455;-47
2021/06/16 07:43:26;;;;;;;3.83;3.53;;;12.50;99.90;;;;;;5082845;28;20494;-48
2021/06/16 07:45:57;;;;;;;5.33;3.80;;;12.40;99.90;;;;;;5083501;28;20562;-48
2021/06/16 07:51:18;;;;;;;4.20;3.57;;;12.50;99.90;;;;;;5083157;28;20473;-48
2021/06/16 07:53:49;;;;;;;4.50;4.10;;;12.50;99.90;;;;;;5083893;28;20448;-46
2021/06/16 07:56:20;;;;;;;5.70;4.00;;;12.50;99.90;;;;;;5081259;28;20497;-50
2021/06/16 07:58:51;;;;;;;4.43;4.10;;;12.50;99.90;;;;;;5082655;28;20507;-46
2021/06/16 08:01:23;;;;;;;4.53;4.10;;;12.50;99.90;;;;;;5083062;28;20459;-45
2021/06/16 08:03:55;;;;;;;4.33;3.90;;;12.40;99.90;;;;;;5083948;28;20507;-47
2021/06/16 08:06:26;;;;;;;4.97;3.87;;;12.40;99.90;;;;;;5083405;28;20451;-46
2021/06/16 08:08:57;;;;;;;7.97;4.30;;;12.40;99.90;;;;;;5083306;28;20941;-47
2021/06/16 08:11:28;;;;;;;5.10;4.70;;;12.40;99.90;;;;;;5082896;28;20462;-46
2021/06/16 08:13:59;;;;;;;5.77;4.60;;;12.40;99.90;;;;;;5070309;28;20452;-48
2021/06/16 08:16:30;;;;;;;7.43;4.40;;;12.40;99.90;;;;;;5082804;28;20482;-48
2021/06/16 08:19:03;;;;;;;4.50;4.13;;;12.40;99.90;;;;;;5082798;28;20471;-49
2021/06/16 08:21:34;;;;;;;6.70;4.80;;;12.30;99.90;;;;;;5082086;28;20454;-47
2021/06/16 08:24:05;;;;;;;4.57;4.17;;;12.20;99.90;;;;;;5082258;28;20443;-49
2021/06/16 08:26:36;;;;;;;6.37;4.00;;;12.20;99.90;;;;;;5082374;28;20458;-47
2021/06/16 08:29:07;;;;;;;4.85;4.40;;;12.10;99.90;;;;;;5081970;28;20455;-47
2021/06/16 08:31:38;;;;;;;5.07;4.57;;;12.10;99.90;;;;;;5082994;28;20291;-47
2021/06/16 08:34:11;;;;;;;4.87;4.33;;;12.10;99.90;;;;;;5082114;28;20512;-50
2021/06/16 08:36:44;;;;;;;5.60;4.13;;;12.00;99.90;;;;;;5083090;28;20490;-46
2021/06/16 08:39:22;;;;;;;5.10;4.20;;;12.00;99.90;;;;;;5082019;28;21342;-48
2021/06/16 08:41:53;;;;;;;5.50;5.10;;;11.90;99.90;;;;;;5082724;28;20452;-48
2021/06/16 08:44:24;;;;;;;4.43;4.03;;;12.00;99.90;;;;;;5074502;28;20467;-48
2021/06/16 08:46:57;;;;;;;6.10;4.90;;;11.90;99.90;;;;;;5083089;28;20967;-48
2021/06/16 08:49:30;;;;;;;4.33;3.97;;;11.90;99.90;;;;;;5082989;28;20759;-46
2021/06/16 08:52:01;;;;;;;6.27;4.97;;;12.00;99.90;;;;;;5082735;28;20487;-46
2021/06/16 08:54:32;;;;;;;8.00;5.37;;;12.00;99.90;;;;;;5082111;28;20968;-46
2021/06/16 08:57:03;;;;;;;5.43;4.70;;;11.80;99.90;;;;;;5081583;28;20439;-45
2021/06/16 08:59:34;;;;;;;8.37;5.00;;;11.80;99.90;;;;;;5082381;28;20319;-47
2021/06/16 09:02:06;;;;;;;5.70;5.20;;;11.80;99.90;;;;;;5082925;28;20444;-46
2021/06/16 09:04:49;;;;;;;5.77;4.90;;;11.80;99.90;;;;;;5082642;28;20436;-46
2021/06/16 09:07:22;;;;;;;5.60;5.10;;;11.80;99.90;;;;;;5082203;28;20971;-46
2021/06/16 09:10:09;;;;;;;5.07;4.53;;;11.80;99.90;;;;;;5081448;28;20455;-47
2021/06/16 09:12:44;;;;;;;6.45;4.85;;;11.80;99.90;;;;;;5082905;28;20489;-46
2021/06/16 09:15:17;;;;;;;4.17;3.83;;;11.70;99.90;;;;;;5082359;28;20224;-45
2021/06/16 09:18:02;;;;;;;6.28;4.90;;;11.70;99.90;;;;;;5082415;28;20451;-45
2021/06/16 09:20:36;;;;;;;7.63;5.05;;;11.60;99.90;;;;;;5081646;28;20201;-45
2021/06/16 09:23:12;;;;;;;5.80;5.20;;;11.60;99.90;;;;;;5083225;28;20224;-46
2021/06/16 09:25:44;;;;;;;7.75;4.88;;;11.60;99.90;;;;;;5080899;28;20200;-45
2021/06/16 09:28:15;;;;;;;5.18;4.70;;;11.60;99.90;;;;;;5082085;28;20216;-46
2021/06/16 09:30:46;;;;;;;5.32;4.82;;;11.60;99.90;;;;;;5082181;28;20201;-49
2021/06/16 09:33:18;;;;;;;5.63;4.70;;;11.50;99.90;;;;;;5084742;28;20642;-48
2021/06/16 09:35:51;;;;;;;8.40;5.80;;;11.50;99.90;;;;;;5085779;28;20439;-47
2021/06/16 09:38:28;;;;;;;5.63;5.03;;;11.50;99.90;;;;;;5086453;28;20444;-48
2021/06/16 09:41:00;;;;;;;6.20;4.77;;;11.40;99.90;;;;;;5084748;28;20454;-46
2021/06/16 09:43:32;;;;;;;6.60;4.32;;;11.40;99.90;;;;;;5081795;28;20451;-46
2021/06/16 09:46:05;;;;;;;5.15;4.70;;;11.40;99.90;;;;;;5085798;28;20232;-45
2021/06/16 09:48:58;;;;;;;5.28;4.07;;;11.40;99.90;;;;;;5085985;28;20263;-48
2021/06/16 09:51:34;;;;;;;5.00;4.50;;;11.20;99.90;;;;;;5081292;28;20205;-47
2021/06/16 09:54:14;;;;;;;4.68;4.28;;;11.30;99.90;;;;;;5085388;28;20201;-50
2021/06/16 09:56:47;;;;;;;5.78;4.43;;;11.30;99.90;;;;;;5086081;28;20193;-47
2021/06/16 09:59:37;;;;;;;5.30;4.47;;;11.20;99.90;;;;;;5084893;28;20256;-49
2021/06/16 10:02:16;;;;;;;4.90;4.30;;;11.20;99.90;;;;;;5085967;28;20475;-48
2021/06/16 10:04:50;;;;;;;5.10;4.50;;;11.10;99.90;;;;;;5085546;28;20209;-47
2021/06/16 10:07:24;;;;;;;5.30;4.43;;;11.10;99.90;;;;;;5086141;28;20247;-46
2021/06/16 10:10:00;;;;;;;4.75;4.35;;;11.10;99.90;;;;;;5084619;28;20282;-47
2021/06/16 10:12:33;;;;;;;5.25;4.57;;;11.10;99.90;;;;;;5077838;28;20198;-47
2021/06/16 10:15:06;;;;;;;5.57;4.00;;;11.10;99.90;;;;;;5082409;28;20254;-46
2021/06/16 10:17:38;;;;;;;4.70;4.20;;;11.00;99.90;;;;;;5070243;28;20283;-48
2021/06/16 10:20:11;;;;;;;4.90;4.47;;;11.10;99.90;;;;;;5084299;28;20289;-48
2021/06/16 10:22:44;;;;;;;5.55;4.40;;;11.10;99.90;;;;;;5085745;28;20514;-50
2021/06/16 10:25:15;;;;;;;5.80;4.60;;;11.00;99.90;;;;;;5084870;28;20205;-51
2021/06/16 10:27:54;;;;;;;4.87;4.47;;;11.00;99.90;;;;;;5085333;28;20447;-50
2021/06/16 10:30:27;;;;;;;4.65;4.15;;;10.90;99.90;;;;;;5085282;28;20842;-51
2021/06/16 10:32:59;;;;;;;4.32;3.92;;;10.90;99.90;;;;;;5086188;28;20611;-51
2021/06/16 10:35:38;;;;;;;7.32;4.55;;;10.90;99.90;;;;;;5085466;28;20235;-46
2021/06/16 10:38:16;;;;;;;4.53;4.13;;;10.80;99.90;;;;;;5085503;28;20231;-47
2021/06/16 10:40:51;;;;;;;4.10;3.70;;;10.80;99.90;;;;;;5073383;28;20518;-47
2021/06/16 10:43:41;;;;;;;6.18;5.55;;;10.80;99.90;;;;;;5084579;28;20485;-46
2021/06/16 10:46:14;;;;;;;4.60;4.15;;;10.90;99.90;;;;;;5084020;28;20232;-47
2021/06/16 10:48:57;;;;;;;5.15;4.25;;;10.90;99.90;;;;;;5069631;28;20318;-48
2021/06/16 10:51:31;;;;;;;6.95;5.00;;;10.80;99.90;;;;;;5085517;28;20197;-48
2021/06/16 10:54:25;;;;;;;7.97;4.20;;;10.70;99.90;;;;;;5083967;28;20197;-46
2021/06/16 10:57:00;;;;;;;7.03;4.55;;;10.70;99.90;;;;;;5079514;28;20246;-49
2021/06/16 11:00:16;;;;;;;3.97;3.42;;;10.70;99.90;;;;;;5084097;28;20243;-49
2021/06/16 11:02:55;;;;;;;4.75;4.00;;;10.70;99.90;;;;;;5084634;28;20225;-47
2021/06/16 11:05:32;;;;;;;4.25;3.85;;;10.60;99.90;;;;;;5083759;28;20197;-47
2021/06/16 11:08:04;;;;;;;4.85;4.13;;;10.60;99.90;;;;;;5081567;28;20228;-46
2021/06/16 11:10:56;;;;;;;5.45;3.80;;;10.60;99.90;;;;;;5066955;28;20320;-49
2021/06/16 11:13:38;;;;;;;5.82;4.30;;;10.50;99.90;;;;;;5083937;28;20205;-46
2021/06/16 11:16:54;;;;;;;4.88;3.65;;;10.50;99.90;;;;;;5084469;28;20201;-48
2021/06/16 11:19:42;;;;;;;4.70;4.25;;;10.40;99.90;;;;;;5083675;28;20274;-46
2021/06/16 11:22:35;;;;;;;4.25;3.75;;;10.40;99.90;;;;;;5084352;28;20185;-46
2021/06/16 11:25:28;;;;;;;4.45;3.97;;;10.50;99.90;;;;;;5083665;28;20217;-47
2021/06/16 11:28:18;;;;;;;4.78;4.25;;;10.50;99.90;;;;;;5078311;28;20273;-46
2021/06/16 11:31:09;;;;;;;5.35;3.65;;;10.50;99.90;;;;;;5081865;28;20212;-49
2021/06/16 11:33:47;;;;;;;4.60;4.20;;;10.50;99.90;;;;;;5083512;28;20201;-44
2021/06/16 11:36:37;;;;;;;5.87;5.27;;;10.50;99.90;;;;;;5083450;28;20197;-45
2021/06/16 11:39:16;;;;;;;4.40;4.10;;;10.50;99.90;;;;;;5082849;28;20557;-46
2021/06/16 11:41:47;;;;;;;5.53;4.13;;;10.40;99.90;;;;;;5083578;28;20231;-46
2021/06/16 11:44:20;;;;;;;4.20;3.80;;;10.50;99.90;;;;;;5073000;28;20201;-46
2021/06/16 11:46:58;;;;;;;7.22;4.18;;;10.40;99.90;;;;;;5083511;28;20247;-46
2021/06/16 11:49:29;;;;;;;4.60;3.85;;;10.40;99.90;;;;;;5083474;28;20277;-48
2021/06/16 11:52:03;;;;;;;4.70;4.05;;;10.30;99.90;;;;;;5083123;28;20202;-48
2021/06/16 11:54:38;;;;;;;4.82;4.30;;;10.30;99.90;;;;;;5081809;28;20236;-46
2021/06/16 11:57:10;;;;;;;4.55;4.15;;;10.40;99.90;;;;;;5081164;28;20236;-44
2021/06/16 11:59:43;;;;;;;6.45;4.90;;;10.40;99.90;;;;;;5082752;28;20232;-45
2021/06/16 12:02:18;;;;;;;6.45;4.70;;;10.40;99.90;;;;;;5083369;28;20198;-47
2021/06/16 12:04:57;;;;;;;4.95;4.38;;;10.50;99.90;;;;;;5082938;28;20240;-46
2021/06/16 12:07:31;;;;;;;4.07;3.67;;;10.50;99.90;;;;;;5067659;28;20185;-48
2021/06/16 12:10:05;;;;;;;4.47;4.07;;;10.50;99.90;;;;;;5081133;28;20197;-46
2021/06/16 12:12:50;;;;;;;4.85;4.45;;;10.50;99.90;;;;;;5083703;28;20204;-49
2021/06/16 12:15:24;;;;;;;6.03;4.30;;;10.50;99.90;;;;;;5082919;28;20277;-46
2021/06/16 12:18:01;;;;;;;4.00;3.70;;;10.60;99.90;;;;;;5066639;28;20208;-47
2021/06/16 12:20:34;;;;;;;5.25;4.75;;;10.60;99.90;;;;;;5081759;28;20224;-46
2021/06/16 12:23:23;;;;;;;4.30;3.88;;;10.80;99.90;;;;;;5083644;28;20212;-46
2021/06/16 12:26:06;;;;;;;5.45;4.50;;;10.90;99.90;;;;;;5081806;28;20205;-47
2021/06/16 12:28:38;;;;;;;5.03;4.13;;;11.00;99.90;;;;;;5083412;28;20189;-46
2021/06/16 12:31:14;;;;;;;4.82;4.40;;;11.10;99.90;;;;;;5082031;28;20235;-46
2021/06/16 12:33:49;;;;;;;4.40;4.00;;;11.20;99.90;;;;;;5083019;28;20224;-45
2021/06/16 12:36:23;;;;;;;5.75;4.60;;;11.30;99.90;;;;;;5082754;28;20229;-48
2021/06/16 12:39:10;;;;;;;5.70;4.28;;;11.30;99.90;;;;;;5081379;28;20205;-49
2021/06/16 12:41:42;;;;;;;4.50;4.20;;;11.40;99.90;;;;;;5080913;28;20274;-45
2021/06/16 12:44:19;;;;;;;5.77;4.80;;;11.40;99.90;;;;;;5081383;28;20201;-46
2021/06/16 12:46:58;;;;;;;6.75;5.30;;;11.40;99.90;;;;;;5082737;28;20467;-50
2021/06/16 12:49:32;;;;;;;6.90;5.40;;;11.50;99.90;;;;;;5082406;28;20205;-46
2021/06/16 12:52:05;;;;;;;5.10;4.60;;;11.60;99.90;;;;;;5082237;28;20455;-45
2021/06/16 12:54:38;;;;;;;8.93;5.43;;;11.60;99.90;;;;;;5066153;28;20471;-49
2021/06/16 12:57:12;;;;;;;7.33;5.10;;;11.70;99.90;;;;;;5082169;28;20511;-46
2021/06/16 12:59:45;;;;;;;5.00;4.60;;;11.80;99.90;;;;;;5082253;28;20450;-45
2021/06/16 13:02:28;;;;;;;5.80;5.20;;;11.70;99.90;;;;;;5081655;28;20443;-45
2021/06/16 13:05:00;;;;;;;6.17;4.97;;;11.80;99.90;;;;;;5082185;28;20466;-47
2021/06/16 13:07:50;;;;;;;5.70;5.10;;;11.80;99.90;;;;;;5065709;28;20463;-45
2021/06/16 13:10:33;;;;;;;6.93;5.27;;;11.90;99.90;;;;;;5081195;28;20483;-46
2021/06/16 13:13:05;;;;;;;8.13;5.30;;;12.00;99.90;;;;;;5082009;28;20571;-47
2021/06/16 13:15:48;;;;;;;7.17;5.60;;;12.00;99.90;;;;;;5082098;28;20439;-47
2021/06/16 13:18:41;;;;;;;5.53;4.97;;;12.10;99.90;;;;;;5082518;28;20450;-46
2021/06/16 13:21:13;;;;;;;6.77;5.07;;;12.20;99.90;;;;;;5075104;28;20487;-47
2021/06/16 13:23:53;;;;;;;5.33;4.83;;;12.30;99.90;;;;;;5068867;28;20428;-45
2021/06/16 13:26:24;;;;;;;5.47;4.93;;;12.30;99.90;;;;;;5081342;28;20479;-48